Huvudsida
METAR-TAF:

METAR-TAF

Flygplatser :

Pago Pago International Airport

Pago Pago, Förenta staternas avlägset belägna öar

latitud: 14-20S, longitud: 170-43W, höjd: 3 m

Aktuellt väderrapport

Denna rapport gjordes för 45 minuter sedan, klockan 06:50 UTC
Vind 9 kt från sydost
Temperatur 28°C
Fuktighet 89%
Tryck 1012 hPa
Sikt: 16.1 km
Spridda moln på en höjd av 1600 ft
Brutna moln på en höjd av 3700 ft

METAR: NSTU 220650Z 13009KT 10SM SCT016 BKN037 28/26 A2988 RMK SLP119 T02800262

Tid: 20:35 (07:35 UTC)

Väderprognos

Denna rapport gjordes för 2 timmar och 6 minuter sedan, klockan 05:29 UTC
Prognos gäller från 22 kl. 06 UTC till 23 kl. 06 UTC
Vind 11 kt från ost/sydost
Sikt: 10 km
Spridda moln på en höjd av 2000 ft
Spridda moln på en höjd av 4000 ft

TAF: NSTU 220529Z 2206/2306 12011KT P6SM SCT020 SCT040

Aktuella väderrapporter och prognoser från 4000 flygplatser (METAR- och TAF-rapporter).

De tillgängliga stationerna syns som gula och röda prickar på kartan.

För musen över prickarna för att se namnen på stationerna.

Klicka sedan för att få väderrapporter och prognoser.

För att ändra kartan: Klicka på de gröna knapparna med ett svart kors på för att zooma in; den gröna knappen med ett streck på för att zooma ut; eller på de gröna pilarna för angränsande kartor.


METAR-TAF: